Nathaniel B. Palmer — WBP3210 — position and weather

sailwx.info

Track history (hours):
 
Tides and Currents Weather Stations Pressure Air Temp Water Temp Dewpoint Dewpoint Depression Visibility Wind Speed Wind Dir Waves Ship Positions

Oceanographic research ship Nathaniel B. Palmer (USA)

Contact: Ethan Norris, ethan.norris.contractor@usap.gov

Detailed information on ship capabilities available from University of Delaware's Ocean Information Center and ARCUS's ALIAS (Arctic Logistics Information and Support) project.

More information available from US FCC via Universal Licensing System and Coast Guard Vessel Documentation Center.

Last reported at 2014-Jul-22 16:00 UTC. Time now 2014-Jul-22 19:54 UTC.
Position S 21°00' W 014°24'.

Type: Other ship. MMSI: 366610000.

Wind from 330 at 6 knots

Barometer 1022.7 mb
Air temperature 21.5 ° C
Water temperature 22.3 ° C

Date/timePositionNaut miles runAvg speedWind from/ knotsBaromVisibWave heightAir tempDewpointWater temp
2014-Jul-22 16:00S 21°00' W 014°24'6 2.8 330 / 61022.7 21.5 22.3
2014-Jul-22 14:00S 21°00' W 014°30'25 6.2 320 / 71023.1 21.7 22.2
2014-Jul-22 10:00S 21°18' W 014°12'6 3.0 340 / 81024.5 20.9 22.0
2014-Jul-22 08:00S 21°24' W 014°12'13 3.2 240 / 81023.7 20.5 22.0
2014-Jul-22 04:00S 21°30' W 014°24'0 0.0 330 / 91023.4 20.3 21.9
2014-Jul-22 02:00S 21°30' W 014°24'12 6.0 280 / 81024.4 20.6 21.9
2014-Jul-22 00:00S 21°18' W 014°24'6 3.0 020 / 111024.8 20.8 22.0
2014-Jul-21 22:00S 21°12' W 014°24'0 0.0 300 / 121024.6 20.6 22.1
2014-Jul-21 20:00S 21°12' W 014°24'12 6.0 040 / 121023.7 20.8 22.1
2014-Jul-21 18:00S 21°00' W 014°24'6 2.8 300 / 101023.6 21.0 22.1
2014-Jul-21 16:00S 21°00' W 014°30'6 1.4 080 / 101023.3 21.2 22.1
2014-Jul-21 12:00S 21°00' W 014°24'0 0.0 050 / 121025.4 20.9 22.0
2014-Jul-21 10:00S 21°00' W 014°24'6 3.0 030 / 171025.3 19.1 22.0
2014-Jul-21 08:00S 21°06' W 014°24'12 3.0 030 / 141024.4 20.6 22.1
2014-Jul-21 04:00S 20°54' W 014°24'0 0.0 210 / 101023.6 20.8 22.1
2014-Jul-21 02:00S 20°54' W 014°24'0 0.0 110 / 111024.3 20.5 22.1
2014-Jul-20 22:00S 20°54' W 014°24'6 3.0 170 / 61025.2 20.5 22.1
2014-Jul-20 20:00S 20°48' W 014°24'8 4.1 280 / 111024.0 20.7 22.1
2014-Jul-20 18:00S 20°54' W 014°30'0 0.0 260 / 71023.7 20.7 22.1
2014-Jul-20 16:00S 20°54' W 014°30'8 4.1 050 / 141023.1 20.6 22.1
2014-Jul-20 14:00S 21°00' W 014°24'8 4.1 280 / 121023.8 21.2 22.1
2014-Jul-20 12:00S 20°54' W 014°30'0 0.0 320 / 111025.3 21.2 22.0
2014-Jul-20 10:00S 20°54' W 014°30'0 0.0 200 / 101025.5 21.0 22.0
2014-Jul-20 08:00S 20°54' W 014°30'6 1.5 330 / 111024.9 20.2 21.9
2014-Jul-20 04:00S 21°00' W 014°30'0 0.0 330 / 111024.2 20.2 22.0
2014-Jul-20 00:00S 21°00' W 014°30'0 0.0 340 / 141025.0 20.2 22.0
2014-Jul-19 22:00S 21°00' W 014°30'0 0.0 240 / 131025.3 20.3 22.0
2014-Jul-19 20:00S 21°00' W 014°30'0 0.0 240 / 131024.7 20.2 22.0
2014-Jul-19 18:00S 21°00' W 014°30'0 0.0 320 / 131024.3 20.3 22.1
2014-Jul-19 12:00S 21°00' W 014°30'8 4.1 330 / 131026.4 20.7 22.1
2014-Jul-19 10:00S 20°54' W 014°24'6 0.9 340 / 151026.1 20.4 22.1
2014-Jul-19 04:00S 20°54' W 014°30'0 0.0 100 / 171024.4 19.9 22.0
2014-Jul-19 02:00S 20°54' W 014°30'0 0.0 250 / 171025.4 20.0 22.1
2014-Jul-19 00:00S 20°54' W 014°30'0 0.0 290 / 181026.2 20.1 22.1
2014-Jul-18 20:00S 20°54' W 014°30'6 3.0 340 / 191026.4 18.5 22.0
2014-Jul-18 18:00S 21°00' W 014°30'6 1.4 090 / 141026.0 19.6 22.1
2014-Jul-18 14:00S 21°00' W 014°24'0 0.0 360 / 201026.0 18.7 22.1
2014-Jul-18 12:00S 21°00' W 014°24'0 0.0 190 / 141027.0 20.2 22.1
2014-Jul-18 10:00S 21°00' W 014°24'0 0.0 280 / 181027.2 19.7 22.1
2014-Jul-18 08:00S 21°00' W 014°24'6 1.5 350 / 181026.2 18.8 22.1
2014-Jul-18 04:00S 20°54' W 014°24'0 0.0 270 / 151026.5 19.5 22.1
2014-Jul-18 02:00S 20°54' W 014°24'18 3.0 340 / 181027.2 19.8 22.1
2014-Jul-17 20:00S 20°48' W 014°06'0 0.0 220 / 111027.6 18.6 22.1
2014-Jul-17 18:00S 20°48' W 014°06'6 2.8 320 / 181027.2 18.1 22.1
2014-Jul-17 16:00S 20°48' W 014°00'0 0.0 300 / 151026.8 19.9 22.2
2014-Jul-17 14:00S 20°48' W 014°00'0 0.0 270 / 171027.9 19.9 22.2
2014-Jul-17 10:00S 20°48' W 014°00'0 0.0 250 / 161029.1 19.9 22.2
2014-Jul-17 08:00S 20°48' W 014°00'6 1.5 130 / 121027.9 20.0 22.1
2014-Jul-17 04:00S 20°54' W 014°00'8 4.1 100 / 141027.5 20.0 22.1
2014-Jul-17 02:00S 20°48' W 013°54'0 0.0 290 / 151028.2 18.8 22.1
2014-Jul-17 00:00S 20°48' W 013°54'8 4.1 340 / 221028.5 19.8 22.1
2014-Jul-16 22:00S 20°54' W 014°00'6 2.8 150 / 221028.0 19.9 22.1
2014-Jul-16 20:00S 20°54' W 014°06'0 0.0 280 / 191027.5 19.9 22.2
2014-Jul-16 18:00S 20°54' W 014°06'0 0.0 300 / 201026.5 20.2 22.2
2014-Jul-16 16:00S 20°54' W 014°06'0 0.0 300 / 191025.7 20.5 22.2
2014-Jul-16 14:00S 20°54' W 014°06'6 1.4 140 / 171026.5 20.3 22.1
2014-Jul-16 10:00S 20°54' W 014°12'0 0.0 260 / 231026.4 19.4 22.2
2014-Jul-16 08:00S 20°54' W 014°12'17 4.2 340 / 201025.6 19.7 22.2
2014-Jul-16 04:00S 20°54' W 014°30'0 0.0 290 / 181024.5 20.2 22.3
2014-Jul-16 00:00S 20°54' W 014°30'0 0.0 180 / 191025.0 20.5 22.4
2014-Jul-15 22:00S 20°54' W 014°30'0 0.0 230 / 171024.4 20.9 22.4
2014-Jul-15 20:00S 20°54' W 014°30'6 1.4 270 / 171023.4 21.0 22.4
2014-Jul-15 16:00S 20°54' W 014°24'0 0.0 290 / 171022.0 21.4 22.3
2014-Jul-15 14:00S 20°54' W 014°24'6 1.4 300 / 181022.1 21.8 22.3
2014-Jul-15 10:00S 20°54' W 014°30'0 0.0 080 / 181022.7 20.9 22.4
2014-Jul-15 08:00S 20°54' W 014°30'0 0.0 180 / 181021.5 20.0 22.4
2014-Jul-15 04:00S 20°54' W 014°30'6 1.5 260 / 81020.7 20.2 22.4
2014-Jul-15 00:00S 21°00' W 014°30'6 2.8 320 / 121021.7 21.4 22.4
2014-Jul-14 22:00S 21°00' W 014°24'0 0.0 320 / 111021.5 21.4 22.3
2014-Jul-14 20:00S 21°00' W 014°24'0 0.0 320 / 91021.2 21.4 22.4
2014-Jul-14 18:00S 21°00' W 014°24'0 0.0 320 / 111020.6 21.7 22.3
2014-Jul-14 16:00S 21°00' W 014°24'0 0.0 270 / 111020.5 21.8 22.3
2014-Jul-14 14:00S 21°00' W 014°24'0 0.0 230 / 71021.2 21.4 22.4
2014-Jul-14 12:00S 21°00' W 014°24'0 0.0 260 / 71022.0 21.9 22.2
2014-Jul-14 10:00S 21°00' W 014°24'0 0.0 250 / 71022.0 22.1 22.3
2014-Jul-14 08:00S 21°00' W 014°24'0 0.0 250 / 81021.1 21.0 22.3
2014-Jul-14 02:00S 21°00' W 014°24'6 2.8 350 / 101021.4 20.7 22.2
2014-Jul-14 00:00S 21°00' W 014°30'0 0.0 210 / 91022.3 20.8 22.3
2014-Jul-13 22:00S 21°00' W 014°30'0 0.0 250 / 101022.2 20.7 22.3
2014-Jul-13 20:00S 21°00' W 014°30'6 1.4 320 / 91021.6 20.7 22.4
2014-Jul-13 16:00S 21°00' W 014°36'0 0.0 300 / 101021.4 21.3 22.3
2014-Jul-13 14:00S 21°00' W 014°36'0 0.0 240 / 111022.7 20.8 22.4
2014-Jul-13 12:00S 21°00' W 014°36'6 1.4 340 / 141024.2 20.3 22.3
2014-Jul-13 08:00S 21°00' W 014°30'17 4.2 040 / 131023.8 19.3 22.3
2014-Jul-13 04:00S 21°00' W 014°48'0 0.0 260 / 121023.0 20.3 22.3
2014-Jul-13 02:00S 21°00' W 014°48'0 0.0 250 / 131024.3 20.3 22.3
2014-Jul-13 00:00S 21°00' W 014°48'0 0.0 250 / 141024.9 20.2 22.3
2014-Jul-12 22:00S 21°00' W 014°48'6 1.4 340 / 141025.0 20.5 22.3
2014-Jul-12 18:00S 21°00' W 014°54'0 0.0 240 / 131023.8 20.8 22.4
2014-Jul-12 16:00S 21°00' W 014°54'   300 / 151024.2 20.5 22.4
Track history (hours):
 
Tides and Currents Weather Stations Pressure Air Temp Water Temp Dewpoint Dewpoint Depression Visibility Wind Speed Wind Dir Waves Ship Positions

Oceanographic research ship Nathaniel B. Palmer (USA)

Contact: Ethan Norris, ethan.norris.contractor@usap.gov

Detailed information on ship capabilities available from University of Delaware's Ocean Information Center and ARCUS's ALIAS (Arctic Logistics Information and Support) project.

More information available from US FCC via Universal Licensing System and Coast Guard Vessel Documentation Center.

Last reported at 2014-Jul-22 16:00 UTC. Time now 2014-Jul-22 19:54 UTC.
Position S 21°00' W 014°24'.

Type: Other ship. MMSI: 366610000.

Wind from 330 at 6 knots

Barometer 1022.7 mb
Air temperature 21.5 ° C
Water temperature 22.3 ° C

Date/timePositionNaut miles runAvg speedWind from/ knotsBaromVisibWave heightAir tempDewpointWater temp
2014-Jul-22 16:00S 21°00' W 014°24'6 2.8 330 / 61022.7 21.5 22.3
2014-Jul-22 14:00S 21°00' W 014°30'25 6.2 320 / 71023.1 21.7 22.2
2014-Jul-22 10:00S 21°18' W 014°12'6 3.0 340 / 81024.5 20.9 22.0
2014-Jul-22 08:00S 21°24' W 014°12'13 3.2 240 / 81023.7 20.5 22.0
2014-Jul-22 04:00S 21°30' W 014°24'0 0.0 330 / 91023.4 20.3 21.9
2014-Jul-22 02:00S 21°30' W 014°24'12 6.0 280 / 81024.4 20.6 21.9
2014-Jul-22 00:00S 21°18' W 014°24'6 3.0 020 / 111024.8 20.8 22.0
2014-Jul-21 22:00S 21°12' W 014°24'0 0.0 300 / 121024.6 20.6 22.1
2014-Jul-21 20:00S 21°12' W 014°24'12 6.0 040 / 121023.7 20.8 22.1
2014-Jul-21 18:00S 21°00' W 014°24'6 2.8 300 / 101023.6 21.0 22.1
2014-Jul-21 16:00S 21°00' W 014°30'6 1.4 080 / 101023.3 21.2 22.1
2014-Jul-21 12:00S 21°00' W 014°24'0 0.0 050 / 121025.4 20.9 22.0
2014-Jul-21 10:00S 21°00' W 014°24'6 3.0 030 / 171025.3 19.1 22.0
2014-Jul-21 08:00S 21°06' W 014°24'12 3.0 030 / 141024.4 20.6 22.1
2014-Jul-21 04:00S 20°54' W 014°24'0 0.0 210 / 101023.6 20.8 22.1
2014-Jul-21 02:00S 20°54' W 014°24'0 0.0 110 / 111024.3 20.5 22.1
2014-Jul-20 22:00S 20°54' W 014°24'6 3.0 170 / 61025.2 20.5 22.1
2014-Jul-20 20:00S 20°48' W 014°24'8 4.1 280 / 111024.0 20.7 22.1
2014-Jul-20 18:00S 20°54' W 014°30'0 0.0 260 / 71023.7 20.7 22.1
2014-Jul-20 16:00S 20°54' W 014°30'8 4.1 050 / 141023.1 20.6 22.1
2014-Jul-20 14:00S 21°00' W 014°24'8 4.1 280 / 121023.8 21.2 22.1
2014-Jul-20 12:00S 20°54' W 014°30'0 0.0 320 / 111025.3 21.2 22.0
2014-Jul-20 10:00S 20°54' W 014°30'0 0.0 200 / 101025.5 21.0 22.0
2014-Jul-20 08:00S 20°54' W 014°30'6 1.5 330 / 111024.9 20.2 21.9
2014-Jul-20 04:00S 21°00' W 014°30'0 0.0 330 / 111024.2 20.2 22.0
2014-Jul-20 00:00S 21°00' W 014°30'0 0.0 340 / 141025.0 20.2 22.0
2014-Jul-19 22:00S 21°00' W 014°30'0 0.0 240 / 131025.3 20.3 22.0
2014-Jul-19 20:00S 21°00' W 014°30'0 0.0 240 / 131024.7 20.2 22.0
2014-Jul-19 18:00S 21°00' W 014°30'0 0.0 320 / 131024.3 20.3 22.1
2014-Jul-19 12:00S 21°00' W 014°30'8 4.1 330 / 131026.4 20.7 22.1
2014-Jul-19 10:00S 20°54' W 014°24'6 0.9 340 / 151026.1 20.4 22.1
2014-Jul-19 04:00S 20°54' W 014°30'0 0.0 100 / 171024.4 19.9 22.0
2014-Jul-19 02:00S 20°54' W 014°30'0 0.0 250 / 171025.4 20.0 22.1
2014-Jul-19 00:00S 20°54' W 014°30'0 0.0 290 / 181026.2 20.1 22.1
2014-Jul-18 20:00S 20°54' W 014°30'6 3.0 340 / 191026.4 18.5 22.0
2014-Jul-18 18:00S 21°00' W 014°30'6 1.4 090 / 141026.0 19.6 22.1
2014-Jul-18 14:00S 21°00' W 014°24'0 0.0 360 / 201026.0 18.7 22.1
2014-Jul-18 12:00S 21°00' W 014°24'0 0.0 190 / 141027.0 20.2 22.1
2014-Jul-18 10:00S 21°00' W 014°24'0 0.0 280 / 181027.2 19.7 22.1
2014-Jul-18 08:00S 21°00' W 014°24'6 1.5 350 / 181026.2 18.8 22.1
2014-Jul-18 04:00S 20°54' W 014°24'0 0.0 270 / 151026.5 19.5 22.1
2014-Jul-18 02:00S 20°54' W 014°24'18 3.0 340 / 181027.2 19.8 22.1
2014-Jul-17 20:00S 20°48' W 014°06'0 0.0 220 / 111027.6 18.6 22.1
2014-Jul-17 18:00S 20°48' W 014°06'6 2.8 320 / 181027.2 18.1 22.1
2014-Jul-17 16:00S 20°48' W 014°00'0 0.0 300 / 151026.8 19.9 22.2
2014-Jul-17 14:00S 20°48' W 014°00'0 0.0 270 / 171027.9 19.9 22.2
2014-Jul-17 10:00S 20°48' W 014°00'0 0.0 250 / 161029.1 19.9 22.2
2014-Jul-17 08:00S 20°48' W 014°00'6 1.5 130 / 121027.9 20.0 22.1
2014-Jul-17 04:00S 20°54' W 014°00'8 4.1 100 / 141027.5 20.0 22.1
2014-Jul-17 02:00S 20°48' W 013°54'0 0.0 290 / 151028.2 18.8 22.1
2014-Jul-17 00:00S 20°48' W 013°54'8 4.1 340 / 221028.5 19.8 22.1
2014-Jul-16 22:00S 20°54' W 014°00'6 2.8 150 / 221028.0 19.9 22.1
2014-Jul-16 20:00S 20°54' W 014°06'0 0.0 280 / 191027.5 19.9 22.2
2014-Jul-16 18:00S 20°54' W 014°06'0 0.0 300 / 201026.5 20.2 22.2
2014-Jul-16 16:00S 20°54' W 014°06'0 0.0 300 / 191025.7 20.5 22.2
2014-Jul-16 14:00S 20°54' W 014°06'6 1.4 140 / 171026.5 20.3 22.1
2014-Jul-16 10:00S 20°54' W 014°12'0 0.0 260 / 231026.4 19.4 22.2
2014-Jul-16 08:00S 20°54' W 014°12'17 4.2 340 / 201025.6 19.7 22.2
2014-Jul-16 04:00S 20°54' W 014°30'0 0.0 290 / 181024.5 20.2 22.3
2014-Jul-16 00:00S 20°54' W 014°30'0 0.0 180 / 191025.0 20.5 22.4
2014-Jul-15 22:00S 20°54' W 014°30'0 0.0 230 / 171024.4 20.9 22.4
2014-Jul-15 20:00S 20°54' W 014°30'6 1.4 270 / 171023.4 21.0 22.4
2014-Jul-15 16:00S 20°54' W 014°24'0 0.0 290 / 171022.0 21.4 22.3
2014-Jul-15 14:00S 20°54' W 014°24'6 1.4 300 / 181022.1 21.8 22.3
2014-Jul-15 10:00S 20°54' W 014°30'0 0.0 080 / 181022.7 20.9 22.4
2014-Jul-15 08:00S 20°54' W 014°30'0 0.0 180 / 181021.5 20.0 22.4
2014-Jul-15 04:00S 20°54' W 014°30'6 1.5 260 / 81020.7 20.2 22.4
2014-Jul-15 00:00S 21°00' W 014°30'6 2.8 320 / 121021.7 21.4 22.4
2014-Jul-14 22:00S 21°00' W 014°24'0 0.0 320 / 111021.5 21.4 22.3
2014-Jul-14 20:00S 21°00' W 014°24'0 0.0 320 / 91021.2 21.4 22.4
2014-Jul-14 18:00S 21°00' W 014°24'0 0.0 320 / 111020.6 21.7 22.3
2014-Jul-14 16:00S 21°00' W 014°24'0 0.0 270 / 111020.5 21.8 22.3
2014-Jul-14 14:00S 21°00' W 014°24'0 0.0 230 / 71021.2 21.4 22.4
2014-Jul-14 12:00S 21°00' W 014°24'0 0.0 260 / 71022.0 21.9 22.2
2014-Jul-14 10:00S 21°00' W 014°24'0 0.0 250 / 71022.0 22.1 22.3
2014-Jul-14 08:00S 21°00' W 014°24'0 0.0 250 / 81021.1 21.0 22.3
2014-Jul-14 02:00S 21°00' W 014°24'6 2.8 350 / 101021.4 20.7 22.2
2014-Jul-14 00:00S 21°00' W 014°30'0 0.0 210 / 91022.3 20.8 22.3
2014-Jul-13 22:00S 21°00' W 014°30'0 0.0 250 / 101022.2 20.7 22.3
2014-Jul-13 20:00S 21°00' W 014°30'6 1.4 320 / 91021.6 20.7 22.4
2014-Jul-13 16:00S 21°00' W 014°36'0 0.0 300 / 101021.4 21.3 22.3
2014-Jul-13 14:00S 21°00' W 014°36'0 0.0 240 / 111022.7 20.8 22.4
2014-Jul-13 12:00S 21°00' W 014°36'6 1.4 340 / 141024.2 20.3 22.3
2014-Jul-13 08:00S 21°00' W 014°30'17 4.2 040 / 131023.8 19.3 22.3
2014-Jul-13 04:00S 21°00' W 014°48'0 0.0 260 / 121023.0 20.3 22.3
2014-Jul-13 02:00S 21°00' W 014°48'0 0.0 250 / 131024.3 20.3 22.3
2014-Jul-13 00:00S 21°00' W 014°48'0 0.0 250 / 141024.9 20.2 22.3
2014-Jul-12 22:00S 21°00' W 014°48'6 1.4 340 / 141025.0 20.5 22.3
2014-Jul-12 18:00S 21°00' W 014°54'0 0.0 240 / 131023.8 20.8 22.4
2014-Jul-12 16:00S 21°00' W 014°54'   300 / 151024.2 20.5 22.4

Dump ship's entire track history